Terminal Aerodrome Forecast
Issued by NWS

Current Version | Previous Version | Text Only | Print | Product List | Glossary On
Versions: 1 2 3 4 5 6 7 8 9 10 11 12 13 14 15 16
000
FTUS41 KPBZ 031736
TAFDUJ
TAF
KDUJ 031736Z 0318/0418 24013G19KT P6SM SKC
     FM031900 26009G15KT P6SM OVC050
     FM032000 25009G16KT P6SM OVC100
     FM032100 25008KT P6SM BKN100
     FM032300 23004KT P6SM BKN250
     FM041000 24003KT 4SM BR SKC
     FM041200 25006KT P6SM SCT250
     FM041700 26009G16KT P6SM BKN250=

USA.gov is the U.S. government's official web portal to all federal, state and local government web resources and services.